createdAt,value
2023-04-18T00:01:00.323Z,8.40
2023-04-18T00:04:42.289Z,8.63
2023-04-18T00:08:24.237Z,9.48
2023-04-18T00:12:06.629Z,9.68
2023-04-18T00:15:48.566Z,11.10
2023-04-18T00:19:30.645Z,10.68
2023-04-18T00:23:14.029Z,11.30
2023-04-18T00:26:57.156Z,10.93
2023-04-18T00:30:39.068Z,10.63
2023-04-18T00:34:20.915Z,10.52
2023-04-18T00:38:02.799Z,10.40
2023-04-18T00:41:44.621Z,11.02
2023-04-18T00:45:26.498Z,10.13
2023-04-18T00:49:08.598Z,10.25
2023-04-18T00:52:50.912Z,10.40
2023-04-18T00:56:32.909Z,9.00
2023-04-18T01:00:15.240Z,9.20
2023-04-18T01:03:57.165Z,8.52
2023-04-18T01:07:41.739Z,8.18
2023-04-18T01:11:23.772Z,8.40
2023-04-18T01:15:06.324Z,7.75
2023-04-18T01:18:48.643Z,7.00
2023-04-18T01:22:31.603Z,6.82
2023-04-18T01:26:13.551Z,7.15
2023-04-18T01:29:55.396Z,6.60
2023-04-18T01:33:37.555Z,6.20
2023-04-18T01:37:19.393Z,5.85
2023-04-18T01:41:02.293Z,5.32
2023-04-18T01:44:44.210Z,5.63
2023-04-18T01:48:26.145Z,5.55
2023-04-18T01:52:08.067Z,5.28
2023-04-18T01:55:50.567Z,4.88
2023-04-18T01:59:32.427Z,5.18
2023-04-18T02:03:14.470Z,5.00
2023-04-18T02:06:56.432Z,5.63
2023-04-18T02:10:38.602Z,5.00
2023-04-18T02:14:20.443Z,5.30
2023-04-18T02:18:02.956Z,5.20
2023-04-18T02:21:44.976Z,5.10
2023-04-18T02:25:28.778Z,5.53
2023-04-18T02:29:10.890Z,5.13
2023-04-18T02:32:58.827Z,5.50
2023-04-18T02:36:40.872Z,5.72
2023-04-18T02:40:22.813Z,6.40
2023-04-18T02:44:04.863Z,6.85
2023-04-18T02:47:55.154Z,7.88
2023-04-18T02:51:38.434Z,7.68
2023-04-18T02:55:21.945Z,8.68
2023-04-18T02:59:03.833Z,9.10
2023-04-18T03:02:46.065Z,9.90
2023-04-18T03:06:28.061Z,9.38
2023-04-18T03:10:10.286Z,10.02
2023-04-18T03:13:52.111Z,10.38
2023-04-18T03:17:34.329Z,11.48
2023-04-18T03:21:16.292Z,11.10
2023-04-18T03:25:00.022Z,11.45
2023-04-18T03:28:41.914Z,11.15
2023-04-18T03:32:23.791Z,11.90
2023-04-18T03:36:06.294Z,11.77
2023-04-18T03:39:48.349Z,11.48
2023-04-18T03:43:30.236Z,11.23
2023-04-18T03:47:12.195Z,11.57
2023-04-18T03:50:54.022Z,11.02
2023-04-18T03:54:35.893Z,11.25
2023-04-18T03:58:18.138Z,10.88
2023-04-18T04:02:00.101Z,11.73
2023-04-18T04:05:42.137Z,11.18
2023-04-18T04:09:23.999Z,11.98
2023-04-18T04:13:05.911Z,11.40
2023-04-18T04:16:47.868Z,12.25
2023-04-18T04:20:29.736Z,12.43
2023-04-18T04:24:11.834Z,12.75
2023-04-18T04:27:54.539Z,10.95
2023-04-18T04:31:36.687Z,11.05
2023-04-18T04:35:18.870Z,11.50
2023-04-18T04:39:04.221Z,10.93
2023-04-18T04:42:47.270Z,11.43
2023-04-18T04:46:30.416Z,10.60
2023-04-18T04:50:15.725Z,10.05
2023-04-18T04:53:57.993Z,10.23
2023-04-18T04:57:39.957Z,11.05
2023-04-18T05:01:22.799Z,11.48
2023-04-18T05:05:05.077Z,10.55
2023-04-18T05:08:48.470Z,10.43
2023-04-18T05:12:30.412Z,10.52
2023-04-18T05:16:12.409Z,10.40
2023-04-18T05:19:54.333Z,10.98
2023-04-18T05:23:37.232Z,10.82
2023-04-18T05:27:19.289Z,10.85
2023-04-18T05:31:01.516Z,11.25
2023-04-18T05:34:43.507Z,11.18
2023-04-18T05:38:25.876Z,12.75
2023-04-18T05:42:07.971Z,11.98
2023-04-18T05:45:52.416Z,11.90
2023-04-18T05:49:34.608Z,11.35
2023-04-18T05:53:16.559Z,11.70
2023-04-18T05:56:58.522Z,11.95
2023-04-18T06:00:41.683Z,11.68
2023-04-18T06:04:23.766Z,11.10
2023-04-18T06:08:06.091Z,10.77
2023-04-18T06:11:47.978Z,10.98
2023-04-18T06:15:29.959Z,10.50
2023-04-18T06:19:14.394Z,10.73
2023-04-18T06:22:56.300Z,10.30
2023-04-18T06:26:38.187Z,10.88
2023-04-18T06:30:21.976Z,10.52
2023-04-18T06:34:04.109Z,10.95
2023-04-18T06:37:46.438Z,10.15
2023-04-18T06:41:28.329Z,9.65
2023-04-18T06:45:11.027Z,10.35
2023-04-18T06:48:52.958Z,10.20
2023-04-18T06:52:37.432Z,10.10
2023-04-18T06:56:20.641Z,9.95
2023-04-18T07:00:02.712Z,9.00
2023-04-18T07:03:44.808Z,8.00
2023-04-18T07:07:26.796Z,8.13
2023-04-18T07:11:08.696Z,8.63
2023-04-18T07:14:51.570Z,8.70
2023-04-18T07:18:37.978Z,8.00
2023-04-18T07:22:20.362Z,8.10
2023-04-18T07:26:03.214Z,8.07
2023-04-18T07:29:45.337Z,7.85
2023-04-18T07:33:28.106Z,7.30
2023-04-18T07:37:10.051Z,7.43
2023-04-18T07:40:59.767Z,7.20
2023-04-18T07:44:41.737Z,7.40
2023-04-18T07:48:25.178Z,7.05
2023-04-18T07:52:08.434Z,6.53
2023-04-18T07:55:50.987Z,7.03
2023-04-18T07:59:33.053Z,7.07
2023-04-18T08:03:16.332Z,7.80
2023-04-18T08:06:58.418Z,7.10
2023-04-18T08:10:40.347Z,7.53
2023-04-18T08:14:22.348Z,7.78
2023-04-18T08:18:04.361Z,7.45
2023-04-18T08:21:46.407Z,6.65
2023-04-18T08:25:28.367Z,7.47
2023-04-18T08:29:10.271Z,7.60
2023-04-18T08:32:52.316Z,7.55
2023-04-18T08:36:35.566Z,7.60
2023-04-18T08:40:18.652Z,7.80
2023-04-18T08:44:00.597Z,8.10
2023-04-18T08:47:42.881Z,8.20
2023-04-18T08:51:25.087Z,7.57
2023-04-18T08:55:07.628Z,8.25
2023-04-18T08:58:50.582Z,8.25
2023-04-18T09:02:45.036Z,7.72
2023-04-18T09:06:28.295Z,7.07
2023-04-18T09:10:10.863Z,7.13
2023-04-18T09:13:55.961Z,7.65
2023-04-18T09:17:43.755Z,7.28
2023-04-18T09:21:27.973Z,7.90
2023-04-18T09:25:09.928Z,7.32
2023-04-18T09:28:53.936Z,7.25
2023-04-18T09:32:36.072Z,7.38
2023-04-18T09:36:23.049Z,7.65
2023-04-18T09:40:18.699Z,7.60
2023-04-18T09:44:15.801Z,7.50
2023-04-18T09:47:57.955Z,6.78
2023-04-18T09:51:42.164Z,7.72
2023-04-18T09:55:24.160Z,7.20
2023-04-18T09:59:10.068Z,6.63
2023-04-18T10:03:09.816Z,6.90
2023-04-18T10:06:53.644Z,6.07
2023-04-18T10:10:38.525Z,6.70
2023-04-18T10:14:22.840Z,6.20
2023-04-18T10:18:15.197Z,6.60
2023-04-18T10:21:59.195Z,5.93
2023-04-18T10:25:41.331Z,5.68
2023-04-18T10:29:46.583Z,5.47
2023-04-18T10:33:41.012Z,5.78
2023-04-18T10:37:26.688Z,5.97
2023-04-18T10:41:16.911Z,5.63
2023-04-18T10:45:18.707Z,5.15
2023-04-18T10:49:27.318Z,5.35
2023-04-18T10:53:10.011Z,5.38
2023-04-18T10:56:56.725Z,5.38
2023-04-18T11:00:38.722Z,5.22
2023-04-18T11:04:20.886Z,5.13
2023-04-18T11:08:02.863Z,4.68
2023-04-18T11:11:44.770Z,4.72
2023-04-18T11:15:28.607Z,5.25
2023-04-18T11:19:23.365Z,5.00
2023-04-18T11:23:21.081Z,4.72
2023-04-18T11:27:04.628Z,5.20
2023-04-18T11:30:46.909Z,4.68
2023-04-18T11:34:32.599Z,4.57
2023-04-18T11:38:15.958Z,4.88
2023-04-18T11:41:59.540Z,5.28
2023-04-18T11:45:59.985Z,4.78
2023-04-18T11:49:42.228Z,4.57
2023-04-18T11:53:34.599Z,4.47
2023-04-18T11:57:27.606Z,4.35
2023-04-18T12:01:35.772Z,4.53
2023-04-18T12:05:32.305Z,4.75
2023-04-18T12:09:15.775Z,4.50
2023-04-18T12:12:59.772Z,4.30
2023-04-18T12:16:42.067Z,4.82
2023-04-18T12:20:25.133Z,4.25
2023-04-18T12:24:18.272Z,4.28
2023-04-18T12:28:18.622Z,4.72
2023-04-18T12:32:00.573Z,4.30
2023-04-18T12:35:42.800Z,4.63
2023-04-18T12:39:26.021Z,4.18
2023-04-18T12:43:08.318Z,3.88
2023-04-18T12:46:50.916Z,4.10
2023-04-18T12:50:33.147Z,3.97
2023-04-18T12:54:15.360Z,3.85
2023-04-18T12:57:58.204Z,3.63
2023-04-18T13:01:40.103Z,3.35
2023-04-18T13:05:24.756Z,3.00
2023-04-18T13:09:06.645Z,3.20
2023-04-18T13:12:50.465Z,3.15
2023-04-18T13:16:32.426Z,3.20
2023-04-18T13:20:15.118Z,2.90
2023-04-18T13:23:57.081Z,2.88
2023-04-18T13:27:41.778Z,3.58
2023-04-18T13:31:24.237Z,3.10
2023-04-18T13:35:10.430Z,3.17
2023-04-18T13:42:35.847Z,2.70
2023-04-18T13:46:18.686Z,3.15
2023-04-18T13:50:00.931Z,3.17
2023-04-18T13:53:42.866Z,3.03
2023-04-18T13:57:24.822Z,3.00
2023-04-18T14:01:06.763Z,2.95
2023-04-18T14:04:48.872Z,3.00
2023-04-18T14:08:30.826Z,3.28
2023-04-18T14:12:12.794Z,2.50
2023-04-18T14:15:54.777Z,3.03
2023-04-18T14:19:39.798Z,2.78
2023-04-18T14:23:22.595Z,2.50
2023-04-18T14:27:04.923Z,2.20
2023-04-18T14:30:47.091Z,2.30
2023-04-18T14:34:31.067Z,2.20
2023-04-18T14:38:13.903Z,2.35
2023-04-18T14:41:55.960Z,2.58
2023-04-18T14:45:37.987Z,2.35
2023-04-18T14:49:19.908Z,2.03
2023-04-18T14:53:03.933Z,1.80
2023-04-18T14:56:45.837Z,1.83
2023-04-18T15:00:28.239Z,1.88
2023-04-18T15:04:10.303Z,2.25
2023-04-18T15:07:52.597Z,2.08
2023-04-18T15:11:34.522Z,2.20
2023-04-18T15:15:16.806Z,2.40
2023-04-18T15:19:00.435Z,1.88
2023-04-18T15:22:42.335Z,2.33
2023-04-18T15:26:24.347Z,2.17
2023-04-18T15:30:07.873Z,2.83
2023-04-18T15:33:49.780Z,2.17
2023-04-18T15:37:31.698Z,2.38
2023-04-18T15:41:13.590Z,2.60
2023-04-18T15:44:55.560Z,2.50
2023-04-18T15:48:37.719Z,2.25
2023-04-18T15:52:19.700Z,2.40
2023-04-18T15:56:01.958Z,2.58
2023-04-18T15:59:43.874Z,2.75
2023-04-18T16:03:26.188Z,2.80
2023-04-18T16:07:08.900Z,2.60
2023-04-18T16:10:53.225Z,2.78
2023-04-18T16:14:35.170Z,2.60
2023-04-18T16:18:17.106Z,2.75
2023-04-18T16:21:59.137Z,2.55
2023-04-18T16:25:41.074Z,2.70
2023-04-18T16:29:23.050Z,2.60
2023-04-18T16:33:05.408Z,3.22
2023-04-18T16:36:48.592Z,2.67
2023-04-18T16:40:34.952Z,2.33
2023-04-18T16:44:16.901Z,2.67
2023-04-18T16:47:58.842Z,2.50
2023-04-18T16:51:40.872Z,2.92
2023-04-18T16:55:22.851Z,2.45
2023-04-18T16:59:04.859Z,2.50
2023-04-18T17:02:47.493Z,2.40
2023-04-18T17:06:31.284Z,2.50
2023-04-18T17:10:13.523Z,2.50
2023-04-18T17:13:55.463Z,2.83
2023-04-18T17:17:37.407Z,2.80
2023-04-18T17:21:19.342Z,2.45
2023-04-18T17:25:01.997Z,2.33
2023-04-18T17:28:43.918Z,2.63
2023-04-18T17:32:25.862Z,2.47
2023-04-18T17:36:08.020Z,2.35
2023-04-18T17:39:50.162Z,2.10
2023-04-18T17:43:32.086Z,2.28
2023-04-18T17:47:13.980Z,2.60
2023-04-18T17:50:55.946Z,2.20
2023-04-18T17:54:37.889Z,2.40
2023-04-18T17:58:20.055Z,2.05
2023-04-18T18:02:02.832Z,2.33
2023-04-18T18:05:50.168Z,2.35
2023-04-18T18:09:32.113Z,3.50
2023-04-18T18:13:14.103Z,1.92
2023-04-18T18:16:56.131Z,2.10
2023-04-18T18:20:38.121Z,2.03
2023-04-18T18:24:20.108Z,1.92
2023-04-18T18:28:03.421Z,1.90
2023-04-18T18:31:45.444Z,2.00
2023-04-18T18:35:27.533Z,1.88
2023-04-18T18:39:09.469Z,1.83
2023-04-18T18:42:53.863Z,2.28
2023-04-18T18:46:36.244Z,1.95
2023-04-18T18:50:18.383Z,1.90
2023-04-18T18:54:00.273Z,2.20
2023-04-18T18:57:42.247Z,2.10
2023-04-18T19:01:24.250Z,2.17
2023-04-18T19:05:06.766Z,1.85
2023-04-18T19:08:48.647Z,1.98
2023-04-18T19:12:31.061Z,2.30
2023-04-18T19:16:13.215Z,2.00
2023-04-18T19:19:57.993Z,2.28
2023-04-18T19:23:41.858Z,2.00
2023-04-18T19:27:23.829Z,2.05
2023-04-18T19:31:06.005Z,2.00
2023-04-18T19:34:47.950Z,2.20
2023-04-18T19:38:29.874Z,2.03
2023-04-18T19:42:11.766Z,1.88
2023-04-18T19:45:55.265Z,2.15
2023-04-18T19:49:37.868Z,2.20
2023-04-18T19:53:20.608Z,1.98
2023-04-18T19:57:04.563Z,2.58
2023-04-18T20:00:46.527Z,2.22
2023-04-18T20:04:29.013Z,2.30
2023-04-18T20:08:11.120Z,2.20
2023-04-18T20:11:54.376Z,2.28
2023-04-18T20:15:36.748Z,2.40
2023-04-18T20:19:19.535Z,2.42
2023-04-18T20:23:02.468Z,2.40
2023-04-18T20:26:44.397Z,2.40
2023-04-18T20:30:26.484Z,2.95
2023-04-18T20:34:09.956Z,2.75
2023-04-18T20:37:51.829Z,2.33
2023-04-18T20:41:34.944Z,2.70
2023-04-18T20:45:16.863Z,2.95
2023-04-18T20:48:59.430Z,2.70
2023-04-18T20:52:42.933Z,2.60
2023-04-18T20:56:25.019Z,2.53
2023-04-18T21:00:08.005Z,2.63
2023-04-18T21:03:50.118Z,2.95
2023-04-18T21:07:32.416Z,2.85
2023-04-18T21:11:14.530Z,2.70
2023-04-18T21:14:56.519Z,2.92
2023-04-18T21:18:39.484Z,2.70
2023-04-18T21:22:21.392Z,3.47
2023-04-18T21:26:03.323Z,2.88
2023-04-18T21:29:45.287Z,2.83
2023-04-18T21:33:27.183Z,2.85
2023-04-18T21:37:09.105Z,3.13
2023-04-18T21:40:50.991Z,3.10
2023-04-18T21:44:32.872Z,3.17
2023-04-18T21:48:15.506Z,2.67
2023-04-18T21:51:57.385Z,3.58
2023-04-18T21:55:39.271Z,3.03
2023-04-18T21:59:21.184Z,3.22
2023-04-18T22:03:03.315Z,3.50
2023-04-18T22:06:46.134Z,3.22
2023-04-18T22:10:28.104Z,3.85
2023-04-18T22:14:10.013Z,3.30
2023-04-18T22:17:52.110Z,3.53
2023-04-18T22:21:34.025Z,3.63
2023-04-18T22:25:16.013Z,3.65
2023-04-18T22:28:57.894Z,3.47
2023-04-18T22:32:40.008Z,3.80
2023-04-18T22:36:21.889Z,3.92
2023-04-18T22:40:06.872Z,3.92
2023-04-18T22:43:48.758Z,3.58
2023-04-18T22:47:30.666Z,4.20
2023-04-18T22:51:14.279Z,3.95
2023-04-18T22:54:56.172Z,4.07
2023-04-18T22:58:38.109Z,4.18
2023-04-18T23:02:20.128Z,4.20
2023-04-18T23:06:02.106Z,3.97
2023-04-18T23:09:44.046Z,4.38
2023-04-18T23:13:25.990Z,4.20
2023-04-18T23:17:08.202Z,4.22
2023-04-18T23:20:50.148Z,5.00
2023-04-18T23:24:32.073Z,4.07
2023-04-18T23:28:13.986Z,5.00
2023-04-18T23:31:56.184Z,4.32
2023-04-18T23:35:38.099Z,3.80
2023-04-18T23:39:21.666Z,4.50
2023-04-18T23:43:03.596Z,4.45
2023-04-18T23:46:45.541Z,4.65
2023-04-18T23:50:27.454Z,4.57
2023-04-18T23:54:09.403Z,4.35
2023-04-18T23:57:51.365Z,4.55
